createdAt,value
2022-10-13T00:00:21.594Z,98893.07
2022-10-13T00:04:02.567Z,98897.81
2022-10-13T00:07:39.354Z,98900.16
2022-10-13T00:11:35.931Z,98894.30
2022-10-13T00:14:58.283Z,98890.13
2022-10-13T00:18:34.657Z,98887.94
2022-10-13T00:22:32.249Z,98890.20
2022-10-13T00:25:53.010Z,98886.54
2022-10-13T00:29:30.524Z,98885.32
2022-10-13T00:33:09.684Z,98888.02
2022-10-13T00:37:05.528Z,98881.92
2022-10-13T00:40:26.393Z,98884.55
2022-10-13T00:44:05.667Z,98883.60
2022-10-13T00:47:45.467Z,98873.07
2022-10-13T00:51:23.213Z,98866.68
2022-10-13T00:54:57.100Z,98863.43
2022-10-13T00:58:36.582Z,98864.40
2022-10-13T01:02:12.232Z,98864.91
2022-10-13T01:05:52.628Z,98858.97
2022-10-13T01:09:34.926Z,98857.26
2022-10-13T01:13:49.798Z,98853.62
2022-10-13T01:18:11.365Z,98855.21
2022-10-13T01:21:46.134Z,98855.79
2022-10-13T01:25:59.239Z,98851.88
2022-10-13T01:30:01.297Z,98847.23
2022-10-13T01:33:22.503Z,98847.42
2022-10-13T01:37:05.254Z,98851.49
2022-10-13T01:40:45.610Z,98855.79
2022-10-13T01:44:22.665Z,98855.46
2022-10-13T01:48:14.968Z,98849.65
2022-10-13T01:51:37.109Z,98843.90
2022-10-13T01:55:14.508Z,98837.08
2022-10-13T01:58:53.396Z,98834.05
2022-10-13T02:02:35.935Z,98827.11
2022-10-13T02:06:18.219Z,98827.34
2022-10-13T02:09:50.395Z,98824.25
2022-10-13T02:13:26.648Z,98816.71
2022-10-13T02:17:04.096Z,98813.89
2022-10-13T02:20:37.491Z,98808.56
2022-10-13T02:24:34.037Z,98808.55
2022-10-13T02:27:57.771Z,98804.16
2022-10-13T02:31:32.451Z,98803.71
2022-10-13T02:35:30.435Z,98804.97
2022-10-13T02:39:14.590Z,98807.39
2022-10-13T02:42:35.489Z,98803.63
2022-10-13T02:46:31.941Z,98805.02
2022-10-13T02:49:52.204Z,98797.79
2022-10-13T02:53:29.995Z,98795.44
2022-10-13T02:57:07.569Z,98791.48
2022-10-13T03:00:45.470Z,98789.19
2022-10-13T03:04:22.949Z,98788.20
2022-10-13T03:08:19.507Z,98783.75
2022-10-13T03:11:41.252Z,98788.04
2022-10-13T03:15:18.855Z,98785.26
2022-10-13T03:18:56.463Z,98786.25
2022-10-13T03:22:34.208Z,98787.52
2022-10-13T03:26:11.855Z,98788.08
2022-10-13T03:29:49.516Z,98788.75
2022-10-13T03:33:27.298Z,98793.70
2022-10-13T03:37:04.986Z,98789.16
2022-10-13T03:40:42.593Z,98785.90
2022-10-13T03:44:39.061Z,98785.59
2022-10-13T03:48:18.458Z,98783.77
2022-10-13T03:51:39.396Z,98783.63
2022-10-13T03:55:16.786Z,98785.02
2022-10-13T03:58:59.291Z,98781.39
2022-10-13T04:02:31.987Z,98781.48
2022-10-13T04:06:10.132Z,98777.54
2022-10-13T04:10:11.160Z,98773.98
2022-10-13T04:13:33.840Z,98771.13
2022-10-13T04:17:10.492Z,98770.84
2022-10-13T04:20:48.313Z,98775.53
2022-10-13T04:24:26.226Z,98771.69
2022-10-13T04:28:22.515Z,98774.55
2022-10-13T04:32:02.591Z,98773.23
2022-10-13T04:35:42.486Z,98774.53
2022-10-13T04:39:03.115Z,98769.20
2022-10-13T04:42:59.420Z,98766.73
2022-10-13T04:46:23.066Z,98767.77
2022-10-13T04:49:57.478Z,98769.84
2022-10-13T04:53:36.128Z,98765.77
2022-10-13T04:57:12.867Z,98762.30
2022-10-13T05:00:50.776Z,98761.05
2022-10-13T05:04:28.145Z,98765.30
2022-10-13T05:08:06.427Z,98768.35
2022-10-13T05:11:43.749Z,98769.56
2022-10-13T05:15:21.110Z,98771.38
2022-10-13T05:18:58.870Z,98774.64
2022-10-13T05:22:36.563Z,98773.24
2022-10-13T05:26:17.332Z,98776.94
2022-10-13T05:30:11.625Z,98776.22
2022-10-13T05:33:32.407Z,98780.80
2022-10-13T05:37:09.957Z,98781.16
2022-10-13T05:41:10.367Z,98775.50
2022-10-13T05:44:30.795Z,98782.84
2022-10-13T05:48:08.688Z,98780.30
2022-10-13T05:51:49.180Z,98781.30
2022-10-13T05:55:24.154Z,98774.05
2022-10-13T05:59:26.786Z,98775.90
2022-10-13T06:03:02.126Z,98778.86
2022-10-13T06:06:30.484Z,98779.84
2022-10-13T06:10:22.791Z,98775.18
2022-10-13T06:13:43.765Z,98776.32
2022-10-13T06:17:40.416Z,98775.11
2022-10-13T06:21:01.785Z,98770.59
2022-10-13T06:24:39.612Z,98770.26
2022-10-13T06:28:21.189Z,98773.63
2022-10-13T06:32:13.887Z,98769.85
2022-10-13T06:35:34.585Z,98766.88
2022-10-13T06:39:12.256Z,98764.25
2022-10-13T06:43:09.541Z,98766.20
2022-10-13T06:46:35.425Z,98758.69
2022-10-13T06:50:13.587Z,98758.10
2022-10-13T06:53:50.817Z,98753.40
2022-10-13T06:57:28.262Z,98747.09
2022-10-13T07:01:06.983Z,98743.08
2022-10-13T07:04:43.606Z,98740.82
2022-10-13T07:08:21.768Z,98736.20
2022-10-13T07:11:58.905Z,98730.24
2022-10-13T07:15:40.855Z,98726.83
2022-10-13T07:19:14.289Z,98727.38
2022-10-13T07:22:55.215Z,98729.02
2022-10-13T07:26:29.803Z,98726.23
2022-10-13T07:30:26.591Z,98727.21
2022-10-13T07:33:49.977Z,98724.80
2022-10-13T07:37:26.316Z,98727.80
2022-10-13T07:41:21.510Z,98728.08
2022-10-13T07:44:42.074Z,98720.53
2022-10-13T07:48:19.777Z,98717.84
2022-10-13T07:51:57.580Z,98717.73
2022-10-13T07:55:35.162Z,98717.52
2022-10-13T07:59:13.027Z,98712.73
2022-10-13T08:02:51.270Z,98710.67
2022-10-13T08:06:46.931Z,98702.05
2022-10-13T08:10:08.857Z,98699.32
2022-10-13T08:14:04.571Z,98695.76
2022-10-13T08:17:44.170Z,98693.59
2022-10-13T08:21:33.021Z,98693.30
2022-10-13T08:24:47.357Z,98692.10
2022-10-13T08:28:57.506Z,98689.64
2022-10-13T08:32:42.690Z,98687.59
2022-10-13T08:36:03.612Z,98683.84
2022-10-13T08:39:41.188Z,98680.73
2022-10-13T08:43:22.630Z,98682.50
2022-10-13T08:47:34.672Z,98681.81
2022-10-13T08:50:57.940Z,98677.14
2022-10-13T08:54:33.603Z,98679.17
2022-10-13T08:58:32.357Z,98676.86
2022-10-13T09:02:30.152Z,98676.46
2022-10-13T09:06:31.239Z,98681.06
2022-10-13T09:10:11.600Z,98682.13
2022-10-13T09:13:33.145Z,98685.07
2022-10-13T09:17:29.527Z,98677.91
2022-10-13T09:21:22.255Z,98674.59
2022-10-13T09:24:42.878Z,98669.46
2022-10-13T09:28:29.934Z,98664.94
2022-10-13T09:32:15.823Z,98663.24
2022-10-13T09:35:55.649Z,98660.27
2022-10-13T09:39:17.271Z,98657.52
2022-10-13T09:42:54.632Z,98658.24
2022-10-13T09:46:39.918Z,98656.80
2022-10-13T09:50:18.953Z,98655.21
2022-10-13T09:53:48.041Z,98656.52
2022-10-13T09:57:47.600Z,98650.19
2022-10-13T10:01:19.046Z,98647.59
2022-10-13T10:05:16.667Z,98645.25
2022-10-13T10:09:05.087Z,98639.73
2022-10-13T10:12:30.024Z,98637.40
2022-10-13T10:16:15.222Z,98631.71
2022-10-13T10:19:58.666Z,98630.28
2022-10-13T10:24:02.338Z,98627.30
2022-10-13T10:27:43.759Z,98622.90
2022-10-13T10:31:29.472Z,98624.14
2022-10-13T10:35:00.054Z,98625.27
2022-10-13T10:38:51.691Z,98623.52
2022-10-13T10:42:40.735Z,98614.02
2022-10-13T10:46:02.587Z,98612.29
2022-10-13T10:49:39.924Z,98613.23
2022-10-13T10:53:45.681Z,98611.91
2022-10-13T10:57:59.788Z,98605.89
2022-10-13T11:01:52.379Z,98603.25
2022-10-13T11:05:15.426Z,98597.30
2022-10-13T11:08:52.052Z,98593.15
2022-10-13T11:12:48.102Z,98588.59
2022-10-13T11:16:39.693Z,98587.86
2022-10-13T11:20:25.146Z,98582.27
2022-10-13T11:24:40.925Z,98577.13
2022-10-13T11:28:23.626Z,98570.30
2022-10-13T11:32:04.834Z,98568.61
2022-10-13T11:35:28.124Z,98568.27
2022-10-13T11:39:08.951Z,98562.98
2022-10-13T11:43:08.243Z,98562.46
2022-10-13T11:47:18.222Z,98557.64
2022-10-13T11:50:48.484Z,98555.08
2022-10-13T11:54:48.063Z,98549.10
2022-10-13T11:58:16.251Z,98545.45
2022-10-13T12:02:12.031Z,98545.66
2022-10-13T12:05:33.020Z,98543.31
2022-10-13T12:09:31.094Z,98538.89
2022-10-13T12:12:52.189Z,98539.98
2022-10-13T12:20:25.673Z,98530.45
2022-10-13T12:24:22.852Z,98529.60
2022-10-13T12:27:49.514Z,98527.24
2022-10-13T12:31:26.920Z,98523.52
2022-10-13T12:35:19.996Z,98520.17
2022-10-13T12:38:50.966Z,98516.89
2022-10-13T12:42:18.855Z,98514.55
2022-10-13T12:45:56.393Z,98511.50
2022-10-13T12:49:36.557Z,98506.77
2022-10-13T12:53:26.473Z,98505.23
2022-10-13T12:56:56.455Z,98500.27
2022-10-13T13:00:58.959Z,98500.02
2022-10-13T13:04:41.259Z,98497.97
2022-10-13T13:08:04.040Z,98493.88
2022-10-13T13:11:39.758Z,98495.29
2022-10-13T13:15:25.121Z,98491.20
2022-10-13T13:18:54.838Z,98487.75
2022-10-13T13:22:51.406Z,98483.68
2022-10-13T13:26:15.303Z,98476.67
2022-10-13T13:29:50.153Z,98479.18
2022-10-13T13:33:27.859Z,98475.93
2022-10-13T13:37:05.218Z,98471.05
2022-10-13T13:41:03.959Z,98471.29
2022-10-13T13:44:24.888Z,98468.04
2022-10-13T13:48:02.555Z,98466.39
2022-10-13T13:51:40.123Z,98466.30
2022-10-13T13:55:18.397Z,98470.11
2022-10-13T13:58:55.603Z,98465.20
2022-10-13T14:02:33.314Z,98461.21
2022-10-13T14:06:30.890Z,98461.14
2022-10-13T14:09:51.444Z,98455.35
2022-10-13T14:13:29.076Z,98452.14
2022-10-13T14:17:06.868Z,98451.39
2022-10-13T14:20:47.538Z,98451.01
2022-10-13T14:24:22.250Z,98446.69
2022-10-13T14:28:18.709Z,98445.41
2022-10-13T14:31:58.970Z,98442.21
2022-10-13T14:35:19.792Z,98441.54
2022-10-13T14:39:16.419Z,98443.23
2022-10-13T14:42:36.867Z,98437.95
2022-10-13T14:46:15.125Z,98441.79
2022-10-13T14:49:52.188Z,98440.40
2022-10-13T14:53:48.891Z,98438.98
2022-10-13T14:57:15.641Z,98437.86
2022-10-13T15:01:06.313Z,98436.31
2022-10-13T15:04:26.819Z,98439.27
2022-10-13T15:08:04.794Z,98443.20
2022-10-13T15:11:42.278Z,98439.55
2022-10-13T15:15:20.200Z,98435.10
2022-10-13T15:18:57.673Z,98434.50
2022-10-13T15:22:35.340Z,98436.92
2022-10-13T15:26:14.826Z,98429.23
2022-10-13T15:29:50.682Z,98428.35
2022-10-13T15:33:32.088Z,98427.97
2022-10-13T15:37:07.042Z,98430.38
2022-10-13T15:41:03.991Z,98428.07
2022-10-13T15:44:25.727Z,98425.54
2022-10-13T15:48:20.987Z,98426.13
2022-10-13T15:51:41.879Z,98425.88
2022-10-13T15:55:22.348Z,98418.23
2022-10-13T15:58:57.251Z,98423.27
2022-10-13T16:02:34.960Z,98419.16
2022-10-13T16:06:13.805Z,98419.05
2022-10-13T16:09:50.281Z,98415.40
2022-10-13T16:13:48.787Z,98421.58
2022-10-13T16:17:11.550Z,98421.34
2022-10-13T16:20:49.148Z,98424.02
2022-10-13T16:24:26.849Z,98425.05
2022-10-13T16:28:04.504Z,98426.48
2022-10-13T16:31:42.252Z,98422.63
2022-10-13T16:35:19.917Z,98425.02
2022-10-13T16:39:19.511Z,98428.50
2022-10-13T16:42:40.316Z,98432.25
2022-10-13T16:46:36.799Z,98422.58
2022-10-13T16:49:57.159Z,98422.83
2022-10-13T16:53:36.211Z,98415.97
2022-10-13T16:57:12.875Z,98419.23
2022-10-13T17:01:09.454Z,98420.49
2022-10-13T17:04:31.395Z,98423.45
2022-10-13T17:08:26.867Z,98421.60
2022-10-13T17:11:47.892Z,98421.41
2022-10-13T17:15:52.545Z,98424.85
2022-10-13T17:19:16.101Z,98421.09
2022-10-13T17:22:50.961Z,98415.35
2022-10-13T17:26:49.402Z,98410.29
2022-10-13T17:30:10.848Z,98417.58
2022-10-13T17:33:48.073Z,98409.80
2022-10-13T17:37:25.468Z,98410.10
2022-10-13T17:41:23.366Z,98409.77
2022-10-13T17:44:47.032Z,98408.86
2022-10-13T17:48:23.292Z,98408.77
2022-10-13T17:52:19.412Z,98408.58
2022-10-13T17:56:06.741Z,98409.38
2022-10-13T17:59:27.208Z,98408.09
2022-10-13T18:03:04.900Z,98409.20
2022-10-13T18:06:46.558Z,98410.05
2022-10-13T18:11:03.492Z,98407.52
2022-10-13T18:14:22.294Z,98406.02
2022-10-13T18:18:16.363Z,98406.81
2022-10-13T18:21:36.971Z,98407.06
2022-10-13T18:25:14.383Z,98408.46
2022-10-13T18:29:12.092Z,98407.80
2022-10-13T18:32:33.992Z,98407.13
2022-10-13T18:36:38.506Z,98405.59
2022-10-13T18:40:04.002Z,98402.88
2022-10-13T18:43:40.048Z,98401.73
2022-10-13T18:47:36.637Z,98403.30
2022-10-13T18:51:19.018Z,98406.85
2022-10-13T18:54:40.534Z,98402.54
2022-10-13T18:58:17.396Z,98399.83
2022-10-13T19:01:57.559Z,98398.73
2022-10-13T19:05:39.221Z,98393.45
2022-10-13T19:09:32.329Z,98399.31
2022-10-13T19:12:53.168Z,98396.77
2022-10-13T19:16:50.123Z,98392.77
2022-10-13T19:20:29.745Z,98392.41
2022-10-13T19:23:59.362Z,98392.67
2022-10-13T19:27:52.867Z,98387.80
2022-10-13T19:31:36.609Z,98386.33
2022-10-13T19:35:20.040Z,98388.73
2022-10-13T19:39:05.305Z,98385.50
2022-10-13T19:42:29.080Z,98385.67
2022-10-13T19:46:08.366Z,98384.96
2022-10-13T19:50:04.731Z,98384.63
2022-10-13T19:53:25.222Z,98386.58
2022-10-13T19:57:03.284Z,98385.44
2022-10-13T20:01:07.743Z,98384.58
2022-10-13T20:04:49.964Z,98384.05
2022-10-13T20:08:17.663Z,98381.73
2022-10-13T20:11:51.732Z,98382.25
2022-10-13T20:15:46.191Z,98381.98
2022-10-13T20:19:06.924Z,98384.42
2022-10-13T20:23:03.329Z,98379.84
2022-10-13T20:26:27.267Z,98381.92
2022-10-13T20:30:01.925Z,98381.79
2022-10-13T20:33:40.414Z,98384.14
2022-10-13T20:37:21.772Z,98382.73
2022-10-13T20:40:54.786Z,98378.25
2022-10-13T20:44:32.780Z,98377.50
2022-10-13T20:48:45.317Z,98373.52
2022-10-13T20:52:30.547Z,98367.05
2022-10-13T20:56:17.547Z,98364.73
2022-10-13T20:59:38.090Z,98367.25
2022-10-13T21:03:15.829Z,98369.69
2022-10-13T21:06:53.397Z,98373.26
2022-10-13T21:10:31.153Z,98372.36
2022-10-13T21:14:09.797Z,98368.29
2022-10-13T21:18:06.128Z,98368.65
2022-10-13T21:21:31.400Z,98366.02
2022-10-13T21:25:06.918Z,98368.74
2022-10-13T21:28:44.518Z,98367.98
2022-10-13T21:32:21.943Z,98363.41
2022-10-13T21:35:59.656Z,98365.68
2022-10-13T21:39:37.437Z,98364.49
2022-10-13T21:43:15.219Z,98363.59
2022-10-13T21:46:52.670Z,98361.00
2022-10-13T21:50:30.438Z,98355.74
2022-10-13T21:54:11.027Z,98354.90
2022-10-13T21:57:45.748Z,98356.51
2022-10-13T22:01:42.862Z,98356.09
2022-10-13T22:05:24.982Z,98354.11
2022-10-13T22:08:48.756Z,98357.53
2022-10-13T22:12:42.760Z,98349.98
2022-10-13T22:16:09.022Z,98349.19
2022-10-13T22:19:59.935Z,98345.45
2022-10-13T22:23:20.314Z,98349.77
2022-10-13T22:26:58.156Z,98346.65
2022-10-13T22:30:39.023Z,98343.11
2022-10-13T22:34:17.215Z,98342.28
2022-10-13T22:37:53.078Z,98335.23
2022-10-13T22:41:29.748Z,98332.65
2022-10-13T22:45:07.254Z,98334.77
2022-10-13T22:49:04.483Z,98330.37
2022-10-13T22:52:25.372Z,98332.06
2022-10-13T22:56:08.548Z,98321.23
2022-10-13T22:59:40.753Z,98316.41
2022-10-13T23:03:38.622Z,98308.20
2022-10-13T23:07:17.971Z,98318.10
2022-10-13T23:10:39.201Z,98317.02
2022-10-13T23:14:16.853Z,98321.36
2022-10-13T23:17:54.548Z,98320.73
2022-10-13T23:21:51.187Z,98318.74
2022-10-13T23:25:11.924Z,98322.45
2022-10-13T23:28:49.535Z,98317.17
2022-10-13T23:32:27.051Z,98318.23
2022-10-13T23:36:06.534Z,98315.69
2022-10-13T23:39:42.497Z,98308.64
2022-10-13T23:43:20.633Z,98307.85
2022-10-13T23:46:57.865Z,98304.38
2022-10-13T23:50:35.709Z,98303.92
2022-10-13T23:54:13.316Z,98298.96
2022-10-13T23:57:50.843Z,98303.10
